sensor_id;sensor_type;location;lat;lon;timestamp;temperature;humidity
12115;DHT22;6121;49.810;6.418;2023-08-31T00:00:54;13.00;99.90
12115;DHT22;6121;49.810;6.418;2023-08-31T00:03:20;13.30;99.90
12115;DHT22;6121;49.810;6.418;2023-08-31T00:05:45;13.20;99.90
12115;DHT22;6121;49.810;6.418;2023-08-31T00:08:12;13.20;99.90
12115;DHT22;6121;49.810;6.418;2023-08-31T00:10:38;13.20;99.90
12115;DHT22;6121;49.810;6.418;2023-08-31T00:13:05;13.10;99.90
12115;DHT22;6121;49.810;6.418;2023-08-31T00:15:32;13.10;99.90
12115;DHT22;6121;49.810;6.418;2023-08-31T00:18:02;13.10;99.90
12115;DHT22;6121;49.810;6.418;2023-08-31T00:20:31;13.10;99.90
12115;DHT22;6121;49.810;6.418;2023-08-31T00:22:59;13.10;99.90
12115;DHT22;6121;49.810;6.418;2023-08-31T00:25:25;13.10;99.90
12115;DHT22;6121;49.810;6.418;2023-08-31T00:27:51;13.10;99.90
12115;DHT22;6121;49.810;6.418;2023-08-31T00:30:18;13.00;99.90
12115;DHT22;6121;49.810;6.418;2023-08-31T00:32:44;13.10;99.90
12115;DHT22;6121;49.810;6.418;2023-08-31T00:35:13;12.90;99.90
12115;DHT22;6121;49.810;6.418;2023-08-31T00:37:38;13.30;99.90
12115;DHT22;6121;49.810;6.418;2023-08-31T00:40:05;13.00;99.90
12115;DHT22;6121;49.810;6.418;2023-08-31T00:42:32;12.90;99.90
12115;DHT22;6121;49.810;6.418;2023-08-31T00:44:58;12.90;99.90
12115;DHT22;6121;49.810;6.418;2023-08-31T00:47:25;12.90;99.90
12115;DHT22;6121;49.810;6.418;2023-08-31T00:49:52;12.90;99.90
12115;DHT22;6121;49.810;6.418;2023-08-31T00:52:19;12.90;99.90
12115;DHT22;6121;49.810;6.418;2023-08-31T00:54:49;12.90;99.90
12115;DHT22;6121;49.810;6.418;2023-08-31T00:57:17;12.90;99.90
12115;DHT22;6121;49.810;6.418;2023-08-31T00:59:43;12.80;99.90
12115;DHT22;6121;49.810;6.418;2023-08-31T01:05:00;12.70;99.90
12115;DHT22;6121;49.810;6.418;2023-08-31T01:13:10;12.60;99.90
12115;DHT22;6121;49.810;6.418;2023-08-31T01:15:41;12.60;99.90
12115;DHT22;6121;49.810;6.418;2023-08-31T01:18:11;12.50;99.90
12115;DHT22;6121;49.810;6.418;2023-08-31T01:20:44;12.40;99.90
12115;DHT22;6121;49.810;6.418;2023-08-31T01:23:18;12.30;99.90
12115;DHT22;6121;49.810;6.418;2023-08-31T01:25:46;12.40;99.90
12115;DHT22;6121;49.810;6.418;2023-08-31T01:28:14;12.30;99.90
12115;DHT22;6121;49.810;6.418;2023-08-31T01:30:40;12.30;99.90
12115;DHT22;6121;49.810;6.418;2023-08-31T01:33:06;12.20;99.90
12115;DHT22;6121;49.810;6.418;2023-08-31T01:35:40;12.10;99.90
12115;DHT22;6121;49.810;6.418;2023-08-31T01:38:07;12.10;99.90
12115;DHT22;6121;49.810;6.418;2023-08-31T01:40:40;12.10;99.90
12115;DHT22;6121;49.810;6.418;2023-08-31T01:43:10;12.20;99.90
12115;DHT22;6121;49.810;6.418;2023-08-31T01:45:37;12.00;99.90
12115;DHT22;6121;49.810;6.418;2023-08-31T01:48:04;12.00;99.90
12115;DHT22;6121;49.810;6.418;2023-08-31T01:50:30;12.10;99.90
12115;DHT22;6121;49.810;6.418;2023-08-31T01:52:56;12.00;99.90
12115;DHT22;6121;49.810;6.418;2023-08-31T01:55:23;11.90;99.90
12115;DHT22;6121;49.810;6.418;2023-08-31T01:57:49;12.00;99.90
12115;DHT22;6121;49.810;6.418;2023-08-31T02:00:19;11.90;99.90
12115;DHT22;6121;49.810;6.418;2023-08-31T02:02:47;11.80;99.90
12115;DHT22;6121;49.810;6.418;2023-08-31T02:05:13;11.60;99.90
12115;DHT22;6121;49.810;6.418;2023-08-31T02:07:39;11.70;99.90
12115;DHT22;6121;49.810;6.418;2023-08-31T02:10:06;11.80;99.90
12115;DHT22;6121;49.810;6.418;2023-08-31T02:12:32;11.60;99.90
12115;DHT22;6121;49.810;6.418;2023-08-31T02:14:59;11.60;99.90
12115;DHT22;6121;49.810;6.418;2023-08-31T02:17:25;11.70;99.90
12115;DHT22;6121;49.810;6.418;2023-08-31T02:19:53;11.80;99.90
12115;DHT22;6121;49.810;6.418;2023-08-31T02:22:18;11.50;99.90
12115;DHT22;6121;49.810;6.418;2023-08-31T02:24:47;11.50;99.90
12115;DHT22;6121;49.810;6.418;2023-08-31T02:27:12;11.50;99.90
12115;DHT22;6121;49.810;6.418;2023-08-31T02:29:38;11.50;99.90
12115;DHT22;6121;49.810;6.418;2023-08-31T02:32:05;11.40;99.90
12115;DHT22;6121;49.810;6.418;2023-08-31T02:34:31;11.50;99.90
12115;DHT22;6121;49.810;6.418;2023-08-31T02:36:56;11.50;99.90
12115;DHT22;6121;49.810;6.418;2023-08-31T02:39:23;11.50;99.90
12115;DHT22;6121;49.810;6.418;2023-08-31T02:41:48;11.40;99.90
12115;DHT22;6121;49.810;6.418;2023-08-31T02:44:16;11.40;99.90
12115;DHT22;6121;49.810;6.418;2023-08-31T02:46:42;11.30;99.90
12115;DHT22;6121;49.810;6.418;2023-08-31T02:49:08;11.30;99.90
12115;DHT22;6121;49.810;6.418;2023-08-31T02:51:34;11.40;99.90
12115;DHT22;6121;49.810;6.418;2023-08-31T02:53:59;11.30;99.90
12115;DHT22;6121;49.810;6.418;2023-08-31T02:56:26;11.30;99.90
12115;DHT22;6121;49.810;6.418;2023-08-31T02:58:51;11.30;99.90
12115;DHT22;6121;49.810;6.418;2023-08-31T03:01:17;11.40;99.90
12115;DHT22;6121;49.810;6.418;2023-08-31T03:03:46;11.30;99.90
12115;DHT22;6121;49.810;6.418;2023-08-31T03:06:13;11.80;99.90
12115;DHT22;6121;49.810;6.418;2023-08-31T03:08:39;11.30;99.90
12115;DHT22;6121;49.810;6.418;2023-08-31T03:11:05;11.30;99.90
12115;DHT22;6121;49.810;6.418;2023-08-31T03:13:32;11.30;99.90
12115;DHT22;6121;49.810;6.418;2023-08-31T03:15:59;12.00;99.90
12115;DHT22;6121;49.810;6.418;2023-08-31T03:18:26;11.30;99.90
12115;DHT22;6121;49.810;6.418;2023-08-31T03:20:54;11.10;99.90
12115;DHT22;6121;49.810;6.418;2023-08-31T03:23:20;11.20;99.90
12115;DHT22;6121;49.810;6.418;2023-08-31T03:25:46;11.20;99.90
12115;DHT22;6121;49.810;6.418;2023-08-31T03:28:12;10.50;99.90
12115;DHT22;6121;49.810;6.418;2023-08-31T03:30:38;11.10;99.90
12115;DHT22;6121;49.810;6.418;2023-08-31T03:33:04;11.10;99.90
12115;DHT22;6121;49.810;6.418;2023-08-31T03:35:32;11.00;99.90
12115;DHT22;6121;49.810;6.418;2023-08-31T03:37:59;11.10;99.90
12115;DHT22;6121;49.810;6.418;2023-08-31T03:40:27;11.10;99.90
12115;DHT22;6121;49.810;6.418;2023-08-31T03:42:52;11.00;99.90
12115;DHT22;6121;49.810;6.418;2023-08-31T03:45:20;11.20;99.90
12115;DHT22;6121;49.810;6.418;2023-08-31T03:47:46;10.90;99.90
12115;DHT22;6121;49.810;6.418;2023-08-31T03:50:12;10.90;99.90
12115;DHT22;6121;49.810;6.418;2023-08-31T03:52:38;10.90;99.90
12115;DHT22;6121;49.810;6.418;2023-08-31T03:55:04;11.00;99.90
12115;DHT22;6121;49.810;6.418;2023-08-31T03:57:32;10.90;99.90
12115;DHT22;6121;49.810;6.418;2023-08-31T04:00:06;10.80;99.90
12115;DHT22;6121;49.810;6.418;2023-08-31T04:02:42;10.80;99.90
12115;DHT22;6121;49.810;6.418;2023-08-31T04:05:09;10.80;99.90
12115;DHT22;6121;49.810;6.418;2023-08-31T04:07:35;10.80;99.90
12115;DHT22;6121;49.810;6.418;2023-08-31T04:10:01;10.90;99.90
12115;DHT22;6121;49.810;6.418;2023-08-31T04:12:27;10.90;99.90
12115;DHT22;6121;49.810;6.418;2023-08-31T04:14:55;11.00;99.90
12115;DHT22;6121;49.810;6.418;2023-08-31T04:17:21;10.90;99.90
12115;DHT22;6121;49.810;6.418;2023-08-31T04:19:46;11.00;99.90
12115;DHT22;6121;49.810;6.418;2023-08-31T04:22:12;11.00;99.90
12115;DHT22;6121;49.810;6.418;2023-08-31T04:24:38;11.00;99.90
12115;DHT22;6121;49.810;6.418;2023-08-31T04:27:04;11.00;99.90
12115;DHT22;6121;49.810;6.418;2023-08-31T04:29:30;10.70;99.90
12115;DHT22;6121;49.810;6.418;2023-08-31T04:31:56;11.30;99.90
12115;DHT22;6121;49.810;6.418;2023-08-31T04:34:22;10.90;99.90
12115;DHT22;6121;49.810;6.418;2023-08-31T04:36:47;11.00;99.90
12115;DHT22;6121;49.810;6.418;2023-08-31T04:39:14;11.00;99.90
12115;DHT22;6121;49.810;6.418;2023-08-31T04:41:39;10.90;99.90
12115;DHT22;6121;49.810;6.418;2023-08-31T04:44:05;10.90;99.90
12115;DHT22;6121;49.810;6.418;2023-08-31T04:46:31;10.90;99.90
12115;DHT22;6121;49.810;6.418;2023-08-31T04:48:58;10.90;99.90
12115;DHT22;6121;49.810;6.418;2023-08-31T04:51:31;10.80;99.90
12115;DHT22;6121;49.810;6.418;2023-08-31T04:54:01;10.80;99.90
12115;DHT22;6121;49.810;6.418;2023-08-31T04:56:31;10.70;99.90
12115;DHT22;6121;49.810;6.418;2023-08-31T04:58:58;10.70;99.90
12115;DHT22;6121;49.810;6.418;2023-08-31T05:01:23;10.80;99.90
12115;DHT22;6121;49.810;6.418;2023-08-31T05:03:49;10.80;99.90
12115;DHT22;6121;49.810;6.418;2023-08-31T05:06:15;10.80;99.90
12115;DHT22;6121;49.810;6.418;2023-08-31T05:08:41;10.80;99.90
12115;DHT22;6121;49.810;6.418;2023-08-31T05:11:07;10.80;99.90
12115;DHT22;6121;49.810;6.418;2023-08-31T05:13:33;10.80;99.90
12115;DHT22;6121;49.810;6.418;2023-08-31T05:15:59;10.80;99.90
12115;DHT22;6121;49.810;6.418;2023-08-31T05:18:25;10.80;99.90
12115;DHT22;6121;49.810;6.418;2023-08-31T05:20:50;10.80;99.90
12115;DHT22;6121;49.810;6.418;2023-08-31T05:23:16;10.70;99.90
12115;DHT22;6121;49.810;6.418;2023-08-31T05:25:43;10.80;99.90
12115;DHT22;6121;49.810;6.418;2023-08-31T05:28:09;10.70;99.90
12115;DHT22;6121;49.810;6.418;2023-08-31T05:30:34;10.70;99.90
12115;DHT22;6121;49.810;6.418;2023-08-31T05:33:01;10.80;99.90
12115;DHT22;6121;49.810;6.418;2023-08-31T05:35:27;10.80;99.90
12115;DHT22;6121;49.810;6.418;2023-08-31T05:37:52;10.90;99.90
12115;DHT22;6121;49.810;6.418;2023-08-31T05:40:18;10.80;99.90
12115;DHT22;6121;49.810;6.418;2023-08-31T05:42:44;10.90;99.90
12115;DHT22;6121;49.810;6.418;2023-08-31T05:45:10;10.90;99.90
12115;DHT22;6121;49.810;6.418;2023-08-31T05:47:36;10.90;99.90
12115;DHT22;6121;49.810;6.418;2023-08-31T05:50:02;10.90;99.90
12115;DHT22;6121;49.810;6.418;2023-08-31T05:52:29;11.00;99.90
12115;DHT22;6121;49.810;6.418;2023-08-31T05:54:55;11.00;99.90
12115;DHT22;6121;49.810;6.418;2023-08-31T05:57:21;11.10;99.90
12115;DHT22;6121;49.810;6.418;2023-08-31T05:59:48;11.20;99.90
12115;DHT22;6121;49.810;6.418;2023-08-31T06:02:13;11.20;99.90
12115;DHT22;6121;49.810;6.418;2023-08-31T06:04:40;11.30;99.90
12115;DHT22;6121;49.810;6.418;2023-08-31T06:07:05;11.40;99.90
12115;DHT22;6121;49.810;6.418;2023-08-31T06:09:31;11.60;99.90
12115;DHT22;6121;49.810;6.418;2023-08-31T06:11:57;11.60;99.90
12115;DHT22;6121;49.810;6.418;2023-08-31T06:14:23;11.70;99.90
12115;DHT22;6121;49.810;6.418;2023-08-31T06:16:48;11.90;99.90
12115;DHT22;6121;49.810;6.418;2023-08-31T06:19:15;11.80;99.90
12115;DHT22;6121;49.810;6.418;2023-08-31T06:21:41;11.90;99.90
12115;DHT22;6121;49.810;6.418;2023-08-31T06:24:07;11.80;99.90
12115;DHT22;6121;49.810;6.418;2023-08-31T06:26:35;11.80;99.90
12115;DHT22;6121;49.810;6.418;2023-08-31T06:29:07;11.80;99.90
12115;DHT22;6121;49.810;6.418;2023-08-31T06:31:36;11.80;99.90
12115;DHT22;6121;49.810;6.418;2023-08-31T06:34:02;12.00;99.90
12115;DHT22;6121;49.810;6.418;2023-08-31T06:36:29;12.00;99.90
12115;DHT22;6121;49.810;6.418;2023-08-31T06:38:55;12.40;99.90
12115;DHT22;6121;49.810;6.418;2023-08-31T06:41:21;12.50;99.90
12115;DHT22;6121;49.810;6.418;2023-08-31T06:43:47;12.60;99.90
12115;DHT22;6121;49.810;6.418;2023-08-31T06:46:13;12.90;99.90
12115;DHT22;6121;49.810;6.418;2023-08-31T06:48:38;13.30;99.90
12115;DHT22;6121;49.810;6.418;2023-08-31T06:51:04;13.30;99.90
12115;DHT22;6121;49.810;6.418;2023-08-31T06:53:30;13.50;99.90
12115;DHT22;6121;49.810;6.418;2023-08-31T06:55:57;13.50;99.90
12115;DHT22;6121;49.810;6.418;2023-08-31T06:58:23;14.00;99.90
12115;DHT22;6121;49.810;6.418;2023-08-31T07:00:48;14.20;99.90
12115;DHT22;6121;49.810;6.418;2023-08-31T07:03:14;14.40;99.90
12115;DHT22;6121;49.810;6.418;2023-08-31T07:05:43;14.60;99.90
12115;DHT22;6121;49.810;6.418;2023-08-31T07:08:10;14.60;99.90
12115;DHT22;6121;49.810;6.418;2023-08-31T07:10:36;14.80;99.90
12115;DHT22;6121;49.810;6.418;2023-08-31T07:13:05;14.70;99.90
12115;DHT22;6121;49.810;6.418;2023-08-31T07:15:30;14.90;99.90
12115;DHT22;6121;49.810;6.418;2023-08-31T07:17:56;15.10;99.90
12115;DHT22;6121;49.810;6.418;2023-08-31T07:20:22;15.50;99.90
12115;DHT22;6121;49.810;6.418;2023-08-31T07:22:48;15.90;99.90
12115;DHT22;6121;49.810;6.418;2023-08-31T07:25:14;16.20;99.90
12115;DHT22;6121;49.810;6.418;2023-08-31T07:27:40;16.50;99.90
12115;DHT22;6121;49.810;6.418;2023-08-31T07:30:06;16.70;99.90
12115;DHT22;6121;49.810;6.418;2023-08-31T07:32:32;16.80;99.90
12115;DHT22;6121;49.810;6.418;2023-08-31T07:34:58;16.90;99.90
12115;DHT22;6121;49.810;6.418;2023-08-31T07:37:24;16.80;99.90
12115;DHT22;6121;49.810;6.418;2023-08-31T07:39:50;16.90;99.90
12115;DHT22;6121;49.810;6.418;2023-08-31T07:42:17;16.80;99.90
12115;DHT22;6121;49.810;6.418;2023-08-31T07:44:42;16.80;99.90
12115;DHT22;6121;49.810;6.418;2023-08-31T07:47:10;16.70;99.90
12115;DHT22;6121;49.810;6.418;2023-08-31T07:49:35;16.90;99.90
12115;DHT22;6121;49.810;6.418;2023-08-31T07:52:01;17.10;99.90
12115;DHT22;6121;49.810;6.418;2023-08-31T07:54:28;17.40;99.90
12115;DHT22;6121;49.810;6.418;2023-08-31T07:56:54;17.80;99.90
12115;DHT22;6121;49.810;6.418;2023-08-31T07:59:20;18.00;99.90
12115;DHT22;6121;49.810;6.418;2023-08-31T08:01:47;18.20;99.90
12115;DHT22;6121;49.810;6.418;2023-08-31T08:04:13;18.60;99.90
12115;DHT22;6121;49.810;6.418;2023-08-31T08:06:38;18.80;99.90
12115;DHT22;6121;49.810;6.418;2023-08-31T08:09:04;19.10;99.90
12115;DHT22;6121;49.810;6.418;2023-08-31T08:11:30;19.10;99.90
12115;DHT22;6121;49.810;6.418;2023-08-31T08:13:56;19.40;99.90
12115;DHT22;6121;49.810;6.418;2023-08-31T08:16:22;19.30;99.90
12115;DHT22;6121;49.810;6.418;2023-08-31T08:18:49;19.60;99.90
12115;DHT22;6121;49.810;6.418;2023-08-31T08:21:15;19.70;99.90
12115;DHT22;6121;49.810;6.418;2023-08-31T08:23:40;20.00;99.90
12115;DHT22;6121;49.810;6.418;2023-08-31T08:26:06;20.20;99.90
12115;DHT22;6121;49.810;6.418;2023-08-31T08:28:32;20.40;99.90
12115;DHT22;6121;49.810;6.418;2023-08-31T08:31:01;20.60;99.90
12115;DHT22;6121;49.810;6.418;2023-08-31T08:33:30;20.80;99.90
12115;DHT22;6121;49.810;6.418;2023-08-31T08:35:59;21.00;99.90
12115;DHT22;6121;49.810;6.418;2023-08-31T08:38:27;21.10;99.90
12115;DHT22;6121;49.810;6.418;2023-08-31T08:40:53;21.40;99.90
12115;DHT22;6121;49.810;6.418;2023-08-31T08:43:25;21.40;99.90
12115;DHT22;6121;49.810;6.418;2023-08-31T08:45:53;21.60;99.90
12115;DHT22;6121;49.810;6.418;2023-08-31T08:48:20;21.50;99.90
12115;DHT22;6121;49.810;6.418;2023-08-31T08:50:46;21.70;99.90
12115;DHT22;6121;49.810;6.418;2023-08-31T08:53:12;22.00;99.90
12115;DHT22;6121;49.810;6.418;2023-08-31T08:55:41;22.10;99.90
12115;DHT22;6121;49.810;6.418;2023-08-31T08:58:21;22.40;99.90
12115;DHT22;6121;49.810;6.418;2023-08-31T09:00:47;22.90;99.90
12115;DHT22;6121;49.810;6.418;2023-08-31T09:03:13;22.90;99.90
12115;DHT22;6121;49.810;6.418;2023-08-31T09:05:39;23.00;99.90
12115;DHT22;6121;49.810;6.418;2023-08-31T09:10:44;23.40;99.90
12115;DHT22;6121;49.810;6.418;2023-08-31T09:13:12;23.80;99.90
12115;DHT22;6121;49.810;6.418;2023-08-31T09:15:44;24.30;99.90
12115;DHT22;6121;49.810;6.418;2023-08-31T09:18:27;24.80;99.50
12115;DHT22;6121;49.810;6.418;2023-08-31T09:20:54;24.70;98.20
12115;DHT22;6121;49.810;6.418;2023-08-31T09:23:22;24.90;96.80
12115;DHT22;6121;49.810;6.418;2023-08-31T09:25:57;25.30;96.20
12115;DHT22;6121;49.810;6.418;2023-08-31T09:28:25;25.50;96.10
12115;DHT22;6121;49.810;6.418;2023-08-31T09:31:06;25.50;95.40
12115;DHT22;6121;49.810;6.418;2023-08-31T09:33:35;25.90;94.90
12115;DHT22;6121;49.810;6.418;2023-08-31T09:36:06;26.00;94.80
12115;DHT22;6121;49.810;6.418;2023-08-31T09:38:41;26.30;93.70
12115;DHT22;6121;49.810;6.418;2023-08-31T09:41:07;26.50;93.90
12115;DHT22;6121;49.810;6.418;2023-08-31T09:43:33;26.00;93.60
12115;DHT22;6121;49.810;6.418;2023-08-31T09:46:00;25.90;93.70
12115;DHT22;6121;49.810;6.418;2023-08-31T09:48:27;25.80;93.60
12115;DHT22;6121;49.810;6.418;2023-08-31T09:50:55;25.80;93.30
12115;DHT22;6121;49.810;6.418;2023-08-31T09:53:24;26.30;92.30
12115;DHT22;6121;49.810;6.418;2023-08-31T09:55:51;26.10;92.40
12115;DHT22;6121;49.810;6.418;2023-08-31T09:58:20;25.90;92.10
12115;DHT22;6121;49.810;6.418;2023-08-31T10:00:47;25.50;93.10
12115;DHT22;6121;49.810;6.418;2023-08-31T10:03:14;25.20;92.90
12115;DHT22;6121;49.810;6.418;2023-08-31T10:05:43;25.20;93.10
12115;DHT22;6121;49.810;6.418;2023-08-31T10:08:10;25.00;93.80
12115;DHT22;6121;49.810;6.418;2023-08-31T10:10:37;25.20;93.30
12115;DHT22;6121;49.810;6.418;2023-08-31T10:13:04;25.60;92.80
12115;DHT22;6121;49.810;6.418;2023-08-31T10:15:37;25.80;93.00
12115;DHT22;6121;49.810;6.418;2023-08-31T10:18:04;25.30;93.30
12115;DHT22;6121;49.810;6.418;2023-08-31T10:20:31;25.40;92.40
12115;DHT22;6121;49.810;6.418;2023-08-31T10:23:07;25.40;92.40
12115;DHT22;6121;49.810;6.418;2023-08-31T10:28:18;25.30;92.60
12115;DHT22;6121;49.810;6.418;2023-08-31T10:33:26;26.80;91.10
12115;DHT22;6121;49.810;6.418;2023-08-31T10:35:55;27.10;91.10
12115;DHT22;6121;49.810;6.418;2023-08-31T10:38:30;28.70;90.00
12115;DHT22;6121;49.810;6.418;2023-08-31T10:41:19;29.80;87.70
12115;DHT22;6121;49.810;6.418;2023-08-31T10:43:55;29.50;83.60
12115;DHT22;6121;49.810;6.418;2023-08-31T10:46:35;30.20;83.30
12115;DHT22;6121;49.810;6.418;2023-08-31T10:51:56;30.50;78.30
12115;DHT22;6121;49.810;6.418;2023-08-31T10:59:27;30.20;78.40
12115;DHT22;6121;49.810;6.418;2023-08-31T11:02:06;30.40;76.90
12115;DHT22;6121;49.810;6.418;2023-08-31T11:04:52;29.30;78.50
12115;DHT22;6121;49.810;6.418;2023-08-31T11:07:19;29.90;77.80
12115;DHT22;6121;49.810;6.418;2023-08-31T11:09:49;30.60;77.60
12115;DHT22;6121;49.810;6.418;2023-08-31T11:12:14;30.80;76.00
12115;DHT22;6121;49.810;6.418;2023-08-31T11:14:41;29.80;76.50
12115;DHT22;6121;49.810;6.418;2023-08-31T11:17:07;28.00;78.80
12115;DHT22;6121;49.810;6.418;2023-08-31T11:19:35;27.70;80.40
12115;DHT22;6121;49.810;6.418;2023-08-31T11:22:02;27.90;78.80
12115;DHT22;6121;49.810;6.418;2023-08-31T11:24:32;28.30;78.00
12115;DHT22;6121;49.810;6.418;2023-08-31T11:26:59;28.30;78.00
12115;DHT22;6121;49.810;6.418;2023-08-31T11:29:25;28.20;77.80
12115;DHT22;6121;49.810;6.418;2023-08-31T11:31:51;28.40;77.80
12115;DHT22;6121;49.810;6.418;2023-08-31T11:34:18;28.80;77.40
12115;DHT22;6121;49.810;6.418;2023-08-31T11:36:45;29.30;76.10
12115;DHT22;6121;49.810;6.418;2023-08-31T11:39:12;29.50;76.10
12115;DHT22;6121;49.810;6.418;2023-08-31T11:41:38;28.90;76.60
12115;DHT22;6121;49.810;6.418;2023-08-31T11:44:12;29.40;76.30
12115;DHT22;6121;49.810;6.418;2023-08-31T11:46:39;29.60;75.50
12115;DHT22;6121;49.810;6.418;2023-08-31T11:49:07;29.50;74.40
12115;DHT22;6121;49.810;6.418;2023-08-31T11:51:34;29.30;75.10
12115;DHT22;6121;49.810;6.418;2023-08-31T11:54:01;29.30;75.60
12115;DHT22;6121;49.810;6.418;2023-08-31T11:56:44;28.80;74.60
12115;DHT22;6121;49.810;6.418;2023-08-31T11:59:16;27.60;77.40
12115;DHT22;6121;49.810;6.418;2023-08-31T12:01:43;26.60;79.10
12115;DHT22;6121;49.810;6.418;2023-08-31T12:04:13;25.80;81.30
12115;DHT22;6121;49.810;6.418;2023-08-31T12:06:40;25.50;82.00
12115;DHT22;6121;49.810;6.418;2023-08-31T12:09:10;25.00;82.60
12115;DHT22;6121;49.810;6.418;2023-08-31T12:11:36;24.70;83.50
12115;DHT22;6121;49.810;6.418;2023-08-31T12:14:03;24.50;84.00
12115;DHT22;6121;49.810;6.418;2023-08-31T12:16:36;24.40;84.10
12115;DHT22;6121;49.810;6.418;2023-08-31T12:19:03;24.40;84.80
12115;DHT22;6121;49.810;6.418;2023-08-31T12:21:30;24.20;85.10
12115;DHT22;6121;49.810;6.418;2023-08-31T12:23:59;24.30;85.80
12115;DHT22;6121;49.810;6.418;2023-08-31T12:26:26;24.30;86.10
12115;DHT22;6121;49.810;6.418;2023-08-31T12:28:52;24.50;86.60
12115;DHT22;6121;49.810;6.418;2023-08-31T12:31:18;24.70;86.70
12115;DHT22;6121;49.810;6.418;2023-08-31T12:33:44;25.00;85.90
12115;DHT22;6121;49.810;6.418;2023-08-31T12:36:10;25.00;85.90
12115;DHT22;6121;49.810;6.418;2023-08-31T12:38:36;25.30;86.10
12115;DHT22;6121;49.810;6.418;2023-08-31T12:41:01;25.30;85.00
12115;DHT22;6121;49.810;6.418;2023-08-31T12:43:28;25.10;85.50
12115;DHT22;6121;49.810;6.418;2023-08-31T12:45:55;24.70;85.80
12115;DHT22;6121;49.810;6.418;2023-08-31T12:48:21;24.70;86.30
12115;DHT22;6121;49.810;6.418;2023-08-31T12:50:47;24.60;86.30
12115;DHT22;6121;49.810;6.418;2023-08-31T12:53:14;24.60;85.60
12115;DHT22;6121;49.810;6.418;2023-08-31T12:55:40;24.40;85.30
12115;DHT22;6121;49.810;6.418;2023-08-31T12:58:06;24.40;85.60
12115;DHT22;6121;49.810;6.418;2023-08-31T13:00:32;24.40;85.50
12115;DHT22;6121;49.810;6.418;2023-08-31T13:02:57;24.20;86.30
12115;DHT22;6121;49.810;6.418;2023-08-31T13:05:23;24.10;86.10
12115;DHT22;6121;49.810;6.418;2023-08-31T13:07:49;24.20;86.60
12115;DHT22;6121;49.810;6.418;2023-08-31T13:10:15;24.30;86.90
12115;DHT22;6121;49.810;6.418;2023-08-31T13:12:40;24.10;86.40
12115;DHT22;6121;49.810;6.418;2023-08-31T13:15:07;23.90;85.90
12115;DHT22;6121;49.810;6.418;2023-08-31T13:17:33;23.90;86.80
12115;DHT22;6121;49.810;6.418;2023-08-31T13:19:59;24.00;86.70
12115;DHT22;6121;49.810;6.418;2023-08-31T13:22:25;24.00;84.50
12115;DHT22;6121;49.810;6.418;2023-08-31T13:24:51;23.90;82.90
12115;DHT22;6121;49.810;6.418;2023-08-31T13:27:17;23.90;82.80
12115;DHT22;6121;49.810;6.418;2023-08-31T13:29:43;23.90;82.90
12115;DHT22;6121;49.810;6.418;2023-08-31T13:32:09;24.00;83.40
12115;DHT22;6121;49.810;6.418;2023-08-31T13:34:36;23.80;84.30
12115;DHT22;6121;49.810;6.418;2023-08-31T13:37:05;23.80;83.90
12115;DHT22;6121;49.810;6.418;2023-08-31T13:39:33;23.70;85.20
12115;DHT22;6121;49.810;6.418;2023-08-31T13:41:59;23.60;86.40
12115;DHT22;6121;49.810;6.418;2023-08-31T13:44:27;23.70;86.60
12115;DHT22;6121;49.810;6.418;2023-08-31T13:46:53;23.60;87.70
12115;DHT22;6121;49.810;6.418;2023-08-31T13:49:18;23.70;87.50
12115;DHT22;6121;49.810;6.418;2023-08-31T13:51:44;23.40;88.00
12115;DHT22;6121;49.810;6.418;2023-08-31T13:54:11;23.50;87.90
12115;DHT22;6121;49.810;6.418;2023-08-31T13:56:37;23.40;86.80
12115;DHT22;6121;49.810;6.418;2023-08-31T13:59:03;23.50;87.70
12115;DHT22;6121;49.810;6.418;2023-08-31T14:01:29;23.10;86.60
12115;DHT22;6121;49.810;6.418;2023-08-31T14:03:55;23.10;87.50
12115;DHT22;6121;49.810;6.418;2023-08-31T14:06:21;23.10;87.40
12115;DHT22;6121;49.810;6.418;2023-08-31T14:08:47;23.20;88.00
12115;DHT22;6121;49.810;6.418;2023-08-31T14:11:14;23.30;86.40
12115;DHT22;6121;49.810;6.418;2023-08-31T14:13:42;22.90;86.90
12115;DHT22;6121;49.810;6.418;2023-08-31T14:16:08;22.90;87.20
12115;DHT22;6121;49.810;6.418;2023-08-31T14:18:34;22.60;86.70
12115;DHT22;6121;49.810;6.418;2023-08-31T14:21:00;22.40;86.70
12115;DHT22;6121;49.810;6.418;2023-08-31T14:23:27;22.30;86.90
12115;DHT22;6121;49.810;6.418;2023-08-31T14:25:52;22.10;87.40
12115;DHT22;6121;49.810;6.418;2023-08-31T14:28:18;22.00;87.60
12115;DHT22;6121;49.810;6.418;2023-08-31T14:30:44;22.00;88.50
12115;DHT22;6121;49.810;6.418;2023-08-31T14:33:10;22.00;88.30
12115;DHT22;6121;49.810;6.418;2023-08-31T14:35:39;21.70;90.00
12115;DHT22;6121;49.810;6.418;2023-08-31T14:38:05;21.90;89.70
12115;DHT22;6121;49.810;6.418;2023-08-31T14:40:31;21.80;89.30
12115;DHT22;6121;49.810;6.418;2023-08-31T14:42:59;21.80;89.10
12115;DHT22;6121;49.810;6.418;2023-08-31T14:45:26;21.60;89.10
12115;DHT22;6121;49.810;6.418;2023-08-31T14:47:52;21.50;90.20
12115;DHT22;6121;49.810;6.418;2023-08-31T14:50:17;21.60;90.20
12115;DHT22;6121;49.810;6.418;2023-08-31T14:52:43;21.70;90.60
12115;DHT22;6121;49.810;6.418;2023-08-31T14:55:09;21.50;90.60
12115;DHT22;6121;49.810;6.418;2023-08-31T14:57:35;21.20;90.90
12115;DHT22;6121;49.810;6.418;2023-08-31T15:00:00;21.10;91.40
12115;DHT22;6121;49.810;6.418;2023-08-31T15:02:27;21.20;91.80
12115;DHT22;6121;49.810;6.418;2023-08-31T15:04:52;21.10;92.20
12115;DHT22;6121;49.810;6.418;2023-08-31T15:07:18;21.30;92.00
12115;DHT22;6121;49.810;6.418;2023-08-31T15:09:44;21.30;91.80
12115;DHT22;6121;49.810;6.418;2023-08-31T15:12:10;21.20;92.20
12115;DHT22;6121;49.810;6.418;2023-08-31T15:14:37;21.20;92.30
12115;DHT22;6121;49.810;6.418;2023-08-31T15:17:06;21.10;92.50
12115;DHT22;6121;49.810;6.418;2023-08-31T15:19:32;21.10;92.80
12115;DHT22;6121;49.810;6.418;2023-08-31T15:21:58;21.10;93.20
12115;DHT22;6121;49.810;6.418;2023-08-31T15:24:24;20.90;93.50
12115;DHT22;6121;49.810;6.418;2023-08-31T15:26:50;20.90;93.60
12115;DHT22;6121;49.810;6.418;2023-08-31T15:29:16;20.90;93.50
12115;DHT22;6121;49.810;6.418;2023-08-31T15:31:42;20.90;93.80
12115;DHT22;6121;49.810;6.418;2023-08-31T15:34:12;20.90;93.70
12115;DHT22;6121;49.810;6.418;2023-08-31T15:36:38;20.80;93.90
12115;DHT22;6121;49.810;6.418;2023-08-31T15:39:04;20.80;94.10
12115;DHT22;6121;49.810;6.418;2023-08-31T15:41:30;20.80;94.00
12115;DHT22;6121;49.810;6.418;2023-08-31T15:44:00;20.70;94.50
12115;DHT22;6121;49.810;6.418;2023-08-31T15:46:26;20.60;94.50
12115;DHT22;6121;49.810;6.418;2023-08-31T15:48:52;20.40;94.90
12115;DHT22;6121;49.810;6.418;2023-08-31T15:51:18;20.40;95.00
12115;DHT22;6121;49.810;6.418;2023-08-31T15:53:44;20.40;95.10
12115;DHT22;6121;49.810;6.418;2023-08-31T15:56:09;20.30;95.40
12115;DHT22;6121;49.810;6.418;2023-08-31T15:58:35;20.20;95.90
12115;DHT22;6121;49.810;6.418;2023-08-31T16:01:01;20.10;97.10
12115;DHT22;6121;49.810;6.418;2023-08-31T16:03:28;20.00;97.90
12115;DHT22;6121;49.810;6.418;2023-08-31T16:05:57;20.20;98.10
12115;DHT22;6121;49.810;6.418;2023-08-31T16:08:23;20.20;98.60